sensor_id;sensor_type;location;lat;lon;timestamp;temperature;humidity
16974;DHT22;8603;46.944;7.412;2022-08-27T00:00:09;17.10;99.90
16974;DHT22;8603;46.944;7.412;2022-08-27T00:02:37;17.00;99.90
16974;DHT22;8603;46.944;7.412;2022-08-27T00:05:03;17.10;99.90
16974;DHT22;8603;46.944;7.412;2022-08-27T00:07:29;17.00;99.90
16974;DHT22;8603;46.944;7.412;2022-08-27T00:09:55;17.00;99.90
16974;DHT22;8603;46.944;7.412;2022-08-27T00:12:20;17.00;99.90
16974;DHT22;8603;46.944;7.412;2022-08-27T00:14:49;17.00;99.90
16974;DHT22;8603;46.944;7.412;2022-08-27T00:17:15;17.00;99.90
16974;DHT22;8603;46.944;7.412;2022-08-27T00:19:41;17.00;99.90
16974;DHT22;8603;46.944;7.412;2022-08-27T00:22:07;16.90;99.90
16974;DHT22;8603;46.944;7.412;2022-08-27T00:24:34;16.90;99.90
16974;DHT22;8603;46.944;7.412;2022-08-27T00:26:59;16.90;99.90
16974;DHT22;8603;46.944;7.412;2022-08-27T00:29:25;16.90;99.90
16974;DHT22;8603;46.944;7.412;2022-08-27T00:31:52;16.90;99.90
16974;DHT22;8603;46.944;7.412;2022-08-27T00:34:18;16.90;99.90
16974;DHT22;8603;46.944;7.412;2022-08-27T00:36:44;16.80;99.90
16974;DHT22;8603;46.944;7.412;2022-08-27T00:39:10;16.80;99.90
16974;DHT22;8603;46.944;7.412;2022-08-27T00:41:37;16.70;99.90
16974;DHT22;8603;46.944;7.412;2022-08-27T00:44:06;16.70;99.90
16974;DHT22;8603;46.944;7.412;2022-08-27T00:49:08;16.60;99.90
16974;DHT22;8603;46.944;7.412;2022-08-27T00:51:35;16.60;99.90
16974;DHT22;8603;46.944;7.412;2022-08-27T00:54:02;16.60;99.90
16974;DHT22;8603;46.944;7.412;2022-08-27T00:56:34;16.50;99.90
16974;DHT22;8603;46.944;7.412;2022-08-27T00:59:02;16.50;99.90
16974;DHT22;8603;46.944;7.412;2022-08-27T01:01:30;16.50;99.90
16974;DHT22;8603;46.944;7.412;2022-08-27T01:03:59;16.50;99.90
16974;DHT22;8603;46.944;7.412;2022-08-27T01:06:31;16.50;99.90
16974;DHT22;8603;46.944;7.412;2022-08-27T01:09:06;16.50;99.90
16974;DHT22;8603;46.944;7.412;2022-08-27T01:11:33;16.40;99.90
16974;DHT22;8603;46.944;7.412;2022-08-27T01:13:59;16.40;99.90
16974;DHT22;8603;46.944;7.412;2022-08-27T01:16:30;16.40;99.90
16974;DHT22;8603;46.944;7.412;2022-08-27T01:18:57;16.40;99.90
16974;DHT22;8603;46.944;7.412;2022-08-27T01:21:40;16.40;99.90
16974;DHT22;8603;46.944;7.412;2022-08-27T01:26:47;16.40;99.90
16974;DHT22;8603;46.944;7.412;2022-08-27T01:29:13;16.40;99.90
16974;DHT22;8603;46.944;7.412;2022-08-27T01:31:39;16.30;99.90
16974;DHT22;8603;46.944;7.412;2022-08-27T01:34:05;16.20;99.90
16974;DHT22;8603;46.944;7.412;2022-08-27T01:36:32;16.30;99.90
16974;DHT22;8603;46.944;7.412;2022-08-27T01:38:58;16.20;99.90
16974;DHT22;8603;46.944;7.412;2022-08-27T01:41:24;16.20;99.90
16974;DHT22;8603;46.944;7.412;2022-08-27T01:43:50;16.20;99.90
16974;DHT22;8603;46.944;7.412;2022-08-27T01:46:23;16.10;99.90
16974;DHT22;8603;46.944;7.412;2022-08-27T01:48:49;16.20;99.90
16974;DHT22;8603;46.944;7.412;2022-08-27T01:51:15;16.10;99.90
16974;DHT22;8603;46.944;7.412;2022-08-27T01:53:41;16.10;99.90
16974;DHT22;8603;46.944;7.412;2022-08-27T01:56:06;16.00;99.90
16974;DHT22;8603;46.944;7.412;2022-08-27T01:58:32;16.00;99.90
16974;DHT22;8603;46.944;7.412;2022-08-27T02:01:05;16.00;99.90
16974;DHT22;8603;46.944;7.412;2022-08-27T02:03:31;16.00;99.90
16974;DHT22;8603;46.944;7.412;2022-08-27T02:06:03;15.90;99.90
16974;DHT22;8603;46.944;7.412;2022-08-27T02:08:29;16.00;99.90
16974;DHT22;8603;46.944;7.412;2022-08-27T02:10:55;16.00;99.90
16974;DHT22;8603;46.944;7.412;2022-08-27T02:13:20;16.00;99.90
16974;DHT22;8603;46.944;7.412;2022-08-27T02:15:46;15.90;99.90
16974;DHT22;8603;46.944;7.412;2022-08-27T02:18:12;16.00;99.90
16974;DHT22;8603;46.944;7.412;2022-08-27T02:20:38;16.00;99.90
16974;DHT22;8603;46.944;7.412;2022-08-27T02:23:04;16.00;99.90
16974;DHT22;8603;46.944;7.412;2022-08-27T02:25:30;16.00;99.90
16974;DHT22;8603;46.944;7.412;2022-08-27T02:27:57;16.10;99.90
16974;DHT22;8603;46.944;7.412;2022-08-27T02:30:24;16.00;99.90
16974;DHT22;8603;46.944;7.412;2022-08-27T02:32:51;16.00;99.90
16974;DHT22;8603;46.944;7.412;2022-08-27T02:35:18;16.10;99.90
16974;DHT22;8603;46.944;7.412;2022-08-27T02:37:45;16.00;99.90
16974;DHT22;8603;46.944;7.412;2022-08-27T02:40:12;16.00;99.90
16974;DHT22;8603;46.944;7.412;2022-08-27T02:42:40;16.00;99.90
16974;DHT22;8603;46.944;7.412;2022-08-27T02:45:10;16.00;99.90
16974;DHT22;8603;46.944;7.412;2022-08-27T02:47:35;16.00;99.90
16974;DHT22;8603;46.944;7.412;2022-08-27T02:50:01;16.00;99.90
16974;DHT22;8603;46.944;7.412;2022-08-27T02:52:28;16.00;99.90
16974;DHT22;8603;46.944;7.412;2022-08-27T02:54:55;16.00;99.90
16974;DHT22;8603;46.944;7.412;2022-08-27T02:57:21;16.00;99.90
16974;DHT22;8603;46.944;7.412;2022-08-27T02:59:47;16.00;99.90
16974;DHT22;8603;46.944;7.412;2022-08-27T03:02:12;16.00;99.90
16974;DHT22;8603;46.944;7.412;2022-08-27T03:04:39;16.00;99.90
16974;DHT22;8603;46.944;7.412;2022-08-27T03:07:05;16.00;99.90
16974;DHT22;8603;46.944;7.412;2022-08-27T03:09:30;16.00;99.90
16974;DHT22;8603;46.944;7.412;2022-08-27T03:11:56;15.90;99.90
16974;DHT22;8603;46.944;7.412;2022-08-27T03:14:22;15.90;99.90
16974;DHT22;8603;46.944;7.412;2022-08-27T03:16:48;16.00;99.90
16974;DHT22;8603;46.944;7.412;2022-08-27T03:19:13;15.90;99.90
16974;DHT22;8603;46.944;7.412;2022-08-27T03:21:39;16.00;99.90
16974;DHT22;8603;46.944;7.412;2022-08-27T03:24:05;15.90;99.90
16974;DHT22;8603;46.944;7.412;2022-08-27T03:26:31;15.90;99.90
16974;DHT22;8603;46.944;7.412;2022-08-27T03:28:57;15.90;99.90
16974;DHT22;8603;46.944;7.412;2022-08-27T03:31:25;15.90;99.90
16974;DHT22;8603;46.944;7.412;2022-08-27T03:33:56;15.90;99.90
16974;DHT22;8603;46.944;7.412;2022-08-27T03:36:22;15.90;99.90
16974;DHT22;8603;46.944;7.412;2022-08-27T03:38:48;15.90;99.90
16974;DHT22;8603;46.944;7.412;2022-08-27T03:41:13;15.90;99.90
16974;DHT22;8603;46.944;7.412;2022-08-27T03:43:40;15.90;99.90
16974;DHT22;8603;46.944;7.412;2022-08-27T03:46:07;15.90;99.90
16974;DHT22;8603;46.944;7.412;2022-08-27T03:48:33;15.90;99.90
16974;DHT22;8603;46.944;7.412;2022-08-27T03:51:04;15.90;99.90
16974;DHT22;8603;46.944;7.412;2022-08-27T03:53:31;15.90;99.90
16974;DHT22;8603;46.944;7.412;2022-08-27T03:55:56;15.90;99.90
16974;DHT22;8603;46.944;7.412;2022-08-27T03:58:22;15.80;99.90
16974;DHT22;8603;46.944;7.412;2022-08-27T04:00:47;15.80;99.90
16974;DHT22;8603;46.944;7.412;2022-08-27T04:03:13;15.80;99.90
16974;DHT22;8603;46.944;7.412;2022-08-27T04:05:40;15.80;99.90
16974;DHT22;8603;46.944;7.412;2022-08-27T04:08:07;15.80;99.90
16974;DHT22;8603;46.944;7.412;2022-08-27T04:10:33;15.80;99.90
16974;DHT22;8603;46.944;7.412;2022-08-27T04:12:59;15.80;99.90
16974;DHT22;8603;46.944;7.412;2022-08-27T04:15:25;15.80;99.90
16974;DHT22;8603;46.944;7.412;2022-08-27T04:17:51;15.90;99.90
16974;DHT22;8603;46.944;7.412;2022-08-27T04:20:16;15.80;99.90
16974;DHT22;8603;46.944;7.412;2022-08-27T04:22:42;15.80;99.90
16974;DHT22;8603;46.944;7.412;2022-08-27T04:25:08;15.80;99.90
16974;DHT22;8603;46.944;7.412;2022-08-27T04:27:34;15.70;99.90
16974;DHT22;8603;46.944;7.412;2022-08-27T04:30:00;15.70;99.90
16974;DHT22;8603;46.944;7.412;2022-08-27T04:32:27;15.80;99.90
16974;DHT22;8603;46.944;7.412;2022-08-27T04:34:58;15.80;99.90
16974;DHT22;8603;46.944;7.412;2022-08-27T04:37:28;15.80;99.90
16974;DHT22;8603;46.944;7.412;2022-08-27T04:39:54;15.80;99.90
16974;DHT22;8603;46.944;7.412;2022-08-27T04:42:19;15.80;99.90
16974;DHT22;8603;46.944;7.412;2022-08-27T04:44:46;15.80;99.90
16974;DHT22;8603;46.944;7.412;2022-08-27T04:47:12;15.80;99.90
16974;DHT22;8603;46.944;7.412;2022-08-27T04:49:38;15.80;99.90
16974;DHT22;8603;46.944;7.412;2022-08-27T04:52:04;15.80;99.90
16974;DHT22;8603;46.944;7.412;2022-08-27T04:54:30;15.80;99.90
16974;DHT22;8603;46.944;7.412;2022-08-27T04:56:56;15.80;99.90
16974;DHT22;8603;46.944;7.412;2022-08-27T04:59:22;15.80;99.90
16974;DHT22;8603;46.944;7.412;2022-08-27T05:01:48;15.80;99.90
16974;DHT22;8603;46.944;7.412;2022-08-27T05:04:15;15.80;99.90
16974;DHT22;8603;46.944;7.412;2022-08-27T05:06:41;15.80;99.90
16974;DHT22;8603;46.944;7.412;2022-08-27T05:09:09;15.70;99.90
16974;DHT22;8603;46.944;7.412;2022-08-27T05:11:35;15.80;99.90
16974;DHT22;8603;46.944;7.412;2022-08-27T05:14:03;15.80;99.90
16974;DHT22;8603;46.944;7.412;2022-08-27T05:16:29;15.80;99.90
16974;DHT22;8603;46.944;7.412;2022-08-27T05:18:57;15.80;99.90
16974;DHT22;8603;46.944;7.412;2022-08-27T05:21:26;15.90;99.90
16974;DHT22;8603;46.944;7.412;2022-08-27T05:23:53;15.90;99.90
16974;DHT22;8603;46.944;7.412;2022-08-27T05:26:20;15.90;99.90
16974;DHT22;8603;46.944;7.412;2022-08-27T05:28:46;15.90;99.90
16974;DHT22;8603;46.944;7.412;2022-08-27T05:31:13;15.90;99.90
16974;DHT22;8603;46.944;7.412;2022-08-27T05:33:40;16.00;99.90
16974;DHT22;8603;46.944;7.412;2022-08-27T05:36:12;16.00;99.90
16974;DHT22;8603;46.944;7.412;2022-08-27T05:38:39;16.00;99.90
16974;DHT22;8603;46.944;7.412;2022-08-27T05:41:10;16.00;99.90
16974;DHT22;8603;46.944;7.412;2022-08-27T05:43:37;16.10;99.90
16974;DHT22;8603;46.944;7.412;2022-08-27T05:46:06;16.20;99.90
16974;DHT22;8603;46.944;7.412;2022-08-27T05:48:33;16.20;99.90
16974;DHT22;8603;46.944;7.412;2022-08-27T05:51:13;16.30;99.90
16974;DHT22;8603;46.944;7.412;2022-08-27T05:53:40;16.30;99.90
16974;DHT22;8603;46.944;7.412;2022-08-27T05:56:13;16.40;99.90
16974;DHT22;8603;46.944;7.412;2022-08-27T05:58:40;16.50;99.90
16974;DHT22;8603;46.944;7.412;2022-08-27T06:01:24;16.70;99.90
16974;DHT22;8603;46.944;7.412;2022-08-27T06:03:50;16.90;99.90
16974;DHT22;8603;46.944;7.412;2022-08-27T06:06:17;17.20;99.90
16974;DHT22;8603;46.944;7.412;2022-08-27T06:08:43;17.40;99.90
16974;DHT22;8603;46.944;7.412;2022-08-27T06:11:08;17.60;99.90
16974;DHT22;8603;46.944;7.412;2022-08-27T06:13:35;18.00;99.90
16974;DHT22;8603;46.944;7.412;2022-08-27T06:16:06;18.30;99.90
16974;DHT22;8603;46.944;7.412;2022-08-27T06:18:33;18.80;99.90
16974;DHT22;8603;46.944;7.412;2022-08-27T06:20:58;19.20;99.90
16974;DHT22;8603;46.944;7.412;2022-08-27T06:23:26;19.70;99.90
16974;DHT22;8603;46.944;7.412;2022-08-27T06:25:51;19.90;99.90
16974;DHT22;8603;46.944;7.412;2022-08-27T06:28:22;20.00;99.90
16974;DHT22;8603;46.944;7.412;2022-08-27T06:30:48;20.10;99.90
16974;DHT22;8603;46.944;7.412;2022-08-27T06:33:13;20.10;99.90
16974;DHT22;8603;46.944;7.412;2022-08-27T06:35:39;20.10;99.90
16974;DHT22;8603;46.944;7.412;2022-08-27T06:38:05;20.20;99.90
16974;DHT22;8603;46.944;7.412;2022-08-27T06:40:31;20.20;99.90
16974;DHT22;8603;46.944;7.412;2022-08-27T06:42:57;20.00;99.90
16974;DHT22;8603;46.944;7.412;2022-08-27T06:45:22;19.90;99.90
16974;DHT22;8603;46.944;7.412;2022-08-27T06:47:48;20.20;99.90
16974;DHT22;8603;46.944;7.412;2022-08-27T06:50:13;21.10;99.90
16974;DHT22;8603;46.944;7.412;2022-08-27T06:52:39;21.60;99.90
16974;DHT22;8603;46.944;7.412;2022-08-27T06:55:06;21.90;99.90
16974;DHT22;8603;46.944;7.412;2022-08-27T06:57:32;22.20;99.90
16974;DHT22;8603;46.944;7.412;2022-08-27T06:59:57;22.30;99.90
16974;DHT22;8603;46.944;7.412;2022-08-27T07:02:23;23.30;99.90
16974;DHT22;8603;46.944;7.412;2022-08-27T07:04:51;25.30;99.90
16974;DHT22;8603;46.944;7.412;2022-08-27T07:07:18;27.30;99.90
16974;DHT22;8603;46.944;7.412;2022-08-27T07:09:43;28.20;99.90
16974;DHT22;8603;46.944;7.412;2022-08-27T07:12:09;28.30;99.90
16974;DHT22;8603;46.944;7.412;2022-08-27T07:14:35;27.60;99.90
16974;DHT22;8603;46.944;7.412;2022-08-27T07:17:01;26.90;99.90
16974;DHT22;8603;46.944;7.412;2022-08-27T07:19:27;27.00;99.90
16974;DHT22;8603;46.944;7.412;2022-08-27T07:21:54;27.60;99.90
16974;DHT22;8603;46.944;7.412;2022-08-27T07:24:20;27.40;99.90
16974;DHT22;8603;46.944;7.412;2022-08-27T07:26:45;28.50;99.90
16974;DHT22;8603;46.944;7.412;2022-08-27T07:29:13;30.30;99.90
16974;DHT22;8603;46.944;7.412;2022-08-27T07:31:40;31.90;99.90
16974;DHT22;8603;46.944;7.412;2022-08-27T07:34:05;33.10;99.90
16974;DHT22;8603;46.944;7.412;2022-08-27T07:36:33;33.90;99.90
16974;DHT22;8603;46.944;7.412;2022-08-27T07:38:58;34.40;99.90
16974;DHT22;8603;46.944;7.412;2022-08-27T07:41:24;34.20;99.60
16974;DHT22;8603;46.944;7.412;2022-08-27T07:43:50;34.30;99.90
16974;DHT22;8603;46.944;7.412;2022-08-27T07:46:34;34.70;98.70
16974;DHT22;8603;46.944;7.412;2022-08-27T07:49:00;34.00;97.50
16974;DHT22;8603;46.944;7.412;2022-08-27T07:51:28;33.70;98.20
16974;DHT22;8603;46.944;7.412;2022-08-27T07:53:57;33.70;97.30
16974;DHT22;8603;46.944;7.412;2022-08-27T07:56:25;34.10;97.90
16974;DHT22;8603;46.944;7.412;2022-08-27T07:58:53;34.70;96.80
16974;DHT22;8603;46.944;7.412;2022-08-27T08:01:19;35.00;95.60
16974;DHT22;8603;46.944;7.412;2022-08-27T08:03:45;35.50;95.80
16974;DHT22;8603;46.944;7.412;2022-08-27T08:06:13;36.10;94.80
16974;DHT22;8603;46.944;7.412;2022-08-27T08:08:40;36.10;93.60
16974;DHT22;8603;46.944;7.412;2022-08-27T08:11:07;36.30;93.90
16974;DHT22;8603;46.944;7.412;2022-08-27T08:13:34;36.70;93.40
16974;DHT22;8603;46.944;7.412;2022-08-27T08:16:00;36.70;92.80
16974;DHT22;8603;46.944;7.412;2022-08-27T08:18:25;36.50;92.60
16974;DHT22;8603;46.944;7.412;2022-08-27T08:20:51;36.30;92.90
16974;DHT22;8603;46.944;7.412;2022-08-27T08:23:17;35.40;93.60
16974;DHT22;8603;46.944;7.412;2022-08-27T08:25:44;34.40;94.90
16974;DHT22;8603;46.944;7.412;2022-08-27T08:28:10;33.10;95.50
16974;DHT22;8603;46.944;7.412;2022-08-27T08:30:36;32.00;96.90
16974;DHT22;8603;46.944;7.412;2022-08-27T08:33:02;31.00;98.30
16974;DHT22;8603;46.944;7.412;2022-08-27T08:35:28;30.10;99.20
16974;DHT22;8603;46.944;7.412;2022-08-27T08:37:54;29.10;99.90
16974;DHT22;8603;46.944;7.412;2022-08-27T08:40:31;28.50;99.90
16974;DHT22;8603;46.944;7.412;2022-08-27T08:42:58;27.80;99.90
16974;DHT22;8603;46.944;7.412;2022-08-27T08:45:27;27.30;99.90
16974;DHT22;8603;46.944;7.412;2022-08-27T08:48:16;27.10;99.90
16974;DHT22;8603;46.944;7.412;2022-08-27T08:50:56;27.10;99.90
16974;DHT22;8603;46.944;7.412;2022-08-27T08:53:47;26.70;99.90
16974;DHT22;8603;46.944;7.412;2022-08-27T08:59:02;25.80;99.90
16974;DHT22;8603;46.944;7.412;2022-08-27T09:01:32;26.00;99.90
16974;DHT22;8603;46.944;7.412;2022-08-27T09:04:02;26.30;99.90
16974;DHT22;8603;46.944;7.412;2022-08-27T09:09:05;25.80;99.90
16974;DHT22;8603;46.944;7.412;2022-08-27T09:11:49;25.70;99.90
16974;DHT22;8603;46.944;7.412;2022-08-27T09:14:48;25.30;99.90
16974;DHT22;8603;46.944;7.412;2022-08-27T09:17:15;25.10;99.90
16974;DHT22;8603;46.944;7.412;2022-08-27T09:19:48;25.10;99.90
16974;DHT22;8603;46.944;7.412;2022-08-27T09:25:33;25.50;99.90
16974;DHT22;8603;46.944;7.412;2022-08-27T09:28:09;25.00;99.90
16974;DHT22;8603;46.944;7.412;2022-08-27T09:30:57;24.80;99.90
16974;DHT22;8603;46.944;7.412;2022-08-27T09:33:32;24.60;99.90
16974;DHT22;8603;46.944;7.412;2022-08-27T09:36:10;24.70;99.90
16974;DHT22;8603;46.944;7.412;2022-08-27T09:38:40;25.10;99.90
16974;DHT22;8603;46.944;7.412;2022-08-27T09:41:16;25.30;99.90
16974;DHT22;8603;46.944;7.412;2022-08-27T09:43:43;25.50;99.90
16974;DHT22;8603;46.944;7.412;2022-08-27T09:46:21;25.60;99.90
16974;DHT22;8603;46.944;7.412;2022-08-27T09:48:47;25.70;99.90
16974;DHT22;8603;46.944;7.412;2022-08-27T09:51:19;25.70;99.90
16974;DHT22;8603;46.944;7.412;2022-08-27T09:53:59;25.90;99.90
16974;DHT22;8603;46.944;7.412;2022-08-27T09:56:40;25.90;99.90
16974;DHT22;8603;46.944;7.412;2022-08-27T09:59:42;25.90;99.90
16974;DHT22;8603;46.944;7.412;2022-08-27T10:02:18;25.70;99.90
16974;DHT22;8603;46.944;7.412;2022-08-27T10:04:56;25.60;99.90
16974;DHT22;8603;46.944;7.412;2022-08-27T10:13:10;25.60;99.90
16974;DHT22;8603;46.944;7.412;2022-08-27T10:24:13;25.20;99.90
16974;DHT22;8603;46.944;7.412;2022-08-27T10:26:59;25.10;99.90
16974;DHT22;8603;46.944;7.412;2022-08-27T10:35:27;24.90;99.90
16974;DHT22;8603;46.944;7.412;2022-08-27T10:41:28;24.90;99.90
16974;DHT22;8603;46.944;7.412;2022-08-27T10:44:01;24.70;99.90
16974;DHT22;8603;46.944;7.412;2022-08-27T10:52:52;24.80;99.90
16974;DHT22;8603;46.944;7.412;2022-08-27T10:55:41;24.60;99.90
16974;DHT22;8603;46.944;7.412;2022-08-27T11:01:05;24.90;99.90
16974;DHT22;8603;46.944;7.412;2022-08-27T11:04:12;24.80;99.90
16974;DHT22;8603;46.944;7.412;2022-08-27T11:06:53;24.70;99.90
16974;DHT22;8603;46.944;7.412;2022-08-27T11:12:20;24.80;99.90
16974;DHT22;8603;46.944;7.412;2022-08-27T11:14:57;24.60;99.90
16974;DHT22;8603;46.944;7.412;2022-08-27T11:23:35;24.70;99.90
16974;DHT22;8603;46.944;7.412;2022-08-27T11:26:03;24.70;99.90
16974;DHT22;8603;46.944;7.412;2022-08-27T11:28:52;24.80;99.90
16974;DHT22;8603;46.944;7.412;2022-08-27T11:31:43;24.80;99.90
16974;DHT22;8603;46.944;7.412;2022-08-27T11:34:27;25.00;99.90
16974;DHT22;8603;46.944;7.412;2022-08-27T11:40:03;25.20;99.90
16974;DHT22;8603;46.944;7.412;2022-08-27T11:47:59;25.00;99.90
16974;DHT22;8603;46.944;7.412;2022-08-27T11:50:27;25.00;99.90
16974;DHT22;8603;46.944;7.412;2022-08-27T11:53:03;25.10;99.90
16974;DHT22;8603;46.944;7.412;2022-08-27T11:55:38;25.20;99.90
16974;DHT22;8603;46.944;7.412;2022-08-27T11:58:26;25.10;99.90
16974;DHT22;8603;46.944;7.412;2022-08-27T12:00:53;25.10;99.90
16974;DHT22;8603;46.944;7.412;2022-08-27T12:08:28;25.20;99.90
16974;DHT22;8603;46.944;7.412;2022-08-27T12:13:51;25.20;99.90
16974;DHT22;8603;46.944;7.412;2022-08-27T12:19:36;25.40;99.90
16974;DHT22;8603;46.944;7.412;2022-08-27T12:22:30;25.50;99.90
16974;DHT22;8603;46.944;7.412;2022-08-27T12:25:25;25.60;99.90
16974;DHT22;8603;46.944;7.412;2022-08-27T12:28:21;25.80;99.90
16974;DHT22;8603;46.944;7.412;2022-08-27T12:30:50;25.90;99.90
16974;DHT22;8603;46.944;7.412;2022-08-27T12:33:44;25.90;99.90
16974;DHT22;8603;46.944;7.412;2022-08-27T12:36:23;25.80;99.90
16974;DHT22;8603;46.944;7.412;2022-08-27T12:39:15;26.00;99.90
16974;DHT22;8603;46.944;7.412;2022-08-27T12:41:50;25.90;99.90
16974;DHT22;8603;46.944;7.412;2022-08-27T12:44:30;25.80;99.90
16974;DHT22;8603;46.944;7.412;2022-08-27T12:47:03;25.70;99.90
16974;DHT22;8603;46.944;7.412;2022-08-27T12:49:56;25.80;99.90
16974;DHT22;8603;46.944;7.412;2022-08-27T13:03:51;25.90;99.90
16974;DHT22;8603;46.944;7.412;2022-08-27T13:06:34;25.90;99.90
16974;DHT22;8603;46.944;7.412;2022-08-27T13:09:09;25.80;99.90
16974;DHT22;8603;46.944;7.412;2022-08-27T13:11:53;25.80;99.90
16974;DHT22;8603;46.944;7.412;2022-08-27T13:14:34;25.90;99.90
16974;DHT22;8603;46.944;7.412;2022-08-27T13:17:18;25.90;99.90
16974;DHT22;8603;46.944;7.412;2022-08-27T13:19:57;26.10;99.90
16974;DHT22;8603;46.944;7.412;2022-08-27T13:25:28;25.70;99.90
16974;DHT22;8603;46.944;7.412;2022-08-27T13:28:12;25.70;99.90
16974;DHT22;8603;46.944;7.412;2022-08-27T13:30:43;25.60;99.90
16974;DHT22;8603;46.944;7.412;2022-08-27T13:33:41;25.60;99.90
16974;DHT22;8603;46.944;7.412;2022-08-27T13:36:12;25.60;99.90
16974;DHT22;8603;46.944;7.412;2022-08-27T13:38:48;25.70;99.90
16974;DHT22;8603;46.944;7.412;2022-08-27T13:41:32;25.80;99.90
16974;DHT22;8603;46.944;7.412;2022-08-27T13:44:17;25.90;99.90
16974;DHT22;8603;46.944;7.412;2022-08-27T13:47:26;25.80;99.90
16974;DHT22;8603;46.944;7.412;2022-08-27T13:56:54;25.70;99.90
16974;DHT22;8603;46.944;7.412;2022-08-27T13:59:26;25.90;99.90
16974;DHT22;8603;46.944;7.412;2022-08-27T14:04:42;26.00;99.90
16974;DHT22;8603;46.944;7.412;2022-08-27T14:07:45;26.00;99.90
16974;DHT22;8603;46.944;7.412;2022-08-27T14:10:29;25.80;99.90
16974;DHT22;8603;46.944;7.412;2022-08-27T14:13:04;25.60;99.90
16974;DHT22;8603;46.944;7.412;2022-08-27T14:15:54;25.40;99.90
16974;DHT22;8603;46.944;7.412;2022-08-27T14:18:34;25.50;99.90
16974;DHT22;8603;46.944;7.412;2022-08-27T14:21:02;25.40;99.90
16974;DHT22;8603;46.944;7.412;2022-08-27T14:23:29;25.40;99.90
16974;DHT22;8603;46.944;7.412;2022-08-27T14:25:56;25.40;99.90
16974;DHT22;8603;46.944;7.412;2022-08-27T14:28:22;25.50;99.90
16974;DHT22;8603;46.944;7.412;2022-08-27T14:30:48;25.40;99.90
16974;DHT22;8603;46.944;7.412;2022-08-27T14:33:14;25.50;99.90
16974;DHT22;8603;46.944;7.412;2022-08-27T14:35:41;25.50;99.90
16974;DHT22;8603;46.944;7.412;2022-08-27T14:38:17;25.50;99.90
16974;DHT22;8603;46.944;7.412;2022-08-27T14:40:44;25.40;99.90
16974;DHT22;8603;46.944;7.412;2022-08-27T14:43:11;25.50;99.90
16974;DHT22;8603;46.944;7.412;2022-08-27T14:45:38;25.50;99.90
16974;DHT22;8603;46.944;7.412;2022-08-27T14:48:06;25.60;99.90
16974;DHT22;8603;46.944;7.412;2022-08-27T14:50:32;25.60;99.90
16974;DHT22;8603;46.944;7.412;2022-08-27T14:52:58;25.70;99.90
16974;DHT22;8603;46.944;7.412;2022-08-27T14:55:24;25.60;99.90
16974;DHT22;8603;46.944;7.412;2022-08-27T14:57:49;25.70;99.90
16974;DHT22;8603;46.944;7.412;2022-08-27T15:00:15;25.70;99.90
16974;DHT22;8603;46.944;7.412;2022-08-27T15:02:45;25.80;99.90
16974;DHT22;8603;46.944;7.412;2022-08-27T15:05:11;25.80;99.90
16974;DHT22;8603;46.944;7.412;2022-08-27T15:07:37;25.80;99.90
16974;DHT22;8603;46.944;7.412;2022-08-27T15:10:03;25.80;99.90
16974;DHT22;8603;46.944;7.412;2022-08-27T15:12:28;25.70;99.90
16974;DHT22;8603;46.944;7.412;2022-08-27T15:14:54;25.70;99.90
16974;DHT22;8603;46.944;7.412;2022-08-27T15:17:20;25.60;99.90
16974;DHT22;8603;46.944;7.412;2022-08-27T15:19:46;25.60;99.90
16974;DHT22;8603;46.944;7.412;2022-08-27T15:22:20;25.60;99.90
16974;DHT22;8603;46.944;7.412;2022-08-27T15:24:49;25.50;99.90
16974;DHT22;8603;46.944;7.412;2022-08-27T15:27:16;25.50;99.90
16974;DHT22;8603;46.944;7.412;2022-08-27T15:29:42;25.50;99.90
16974;DHT22;8603;46.944;7.412;2022-08-27T15:32:09;25.60;99.90
16974;DHT22;8603;46.944;7.412;2022-08-27T15:34:37;25.50;99.90
16974;DHT22;8603;46.944;7.412;2022-08-27T15:37:03;25.60;99.90
16974;DHT22;8603;46.944;7.412;2022-08-27T15:39:28;25.60;99.90
16974;DHT22;8603;46.944;7.412;2022-08-27T15:41:54;25.60;99.90
16974;DHT22;8603;46.944;7.412;2022-08-27T15:44:19;25.60;99.90
16974;DHT22;8603;46.944;7.412;2022-08-27T15:46:45;25.60;99.90
16974;DHT22;8603;46.944;7.412;2022-08-27T15:49:13;25.60;99.90
16974;DHT22;8603;46.944;7.412;2022-08-27T15:51:39;25.50;99.90
16974;DHT22;8603;46.944;7.412;2022-08-27T15:54:05;25.40;99.90
16974;DHT22;8603;46.944;7.412;2022-08-27T15:56:30;25.30;99.90
16974;DHT22;8603;46.944;7.412;2022-08-27T15:58:56;25.30;99.90
16974;DHT22;8603;46.944;7.412;2022-08-27T16:01:26;25.30;99.90
16974;DHT22;8603;46.944;7.412;2022-08-27T16:03:52;25.30;99.90
16974;DHT22;8603;46.944;7.412;2022-08-27T16:06:18;25.30;99.90
16974;DHT22;8603;46.944;7.412;2022-08-27T16:08:44;25.30;99.90
16974;DHT22;8603;46.944;7.412;2022-08-27T16:11:11;25.20;99.90
16974;DHT22;8603;46.944;7.412;2022-08-27T16:13:37;25.30;99.90
16974;DHT22;8603;46.944;7.412;2022-08-27T16:16:03;25.20;99.90
16974;DHT22;8603;46.944;7.412;2022-08-27T16:18:32;25.10;99.90
16974;DHT22;8603;46.944;7.412;2022-08-27T16:21:00;25.00;99.90
16974;DHT22;8603;46.944;7.412;2022-08-27T16:23:26;24.90;99.90
16974;DHT22;8603;46.944;7.412;2022-08-27T16:25:53;24.80;99.90
16974;DHT22;8603;46.944;7.412;2022-08-27T16:28:19;24.80;99.90
16974;DHT22;8603;46.944;7.412;2022-08-27T16:30:45;24.70;99.90
16974;DHT22;8603;46.944;7.412;2022-08-27T16:33:11;24.70;99.90
16974;DHT22;8603;46.944;7.412;2022-08-27T16:35:38;24.70;99.90
16974;DHT22;8603;46.944;7.412;2022-08-27T16:38:04;24.70;99.90
16974;DHT22;8603;46.944;7.412;2022-08-27T16:40:32;24.60;99.90
16974;DHT22;8603;46.944;7.412;2022-08-27T16:42:58;24.60;99.90
16974;DHT22;8603;46.944;7.412;2022-08-27T16:45:26;24.50;99.90
16974;DHT22;8603;46.944;7.412;2022-08-27T16:47:52;24.50;99.90
16974;DHT22;8603;46.944;7.412;2022-08-27T16:50:42;24.50;99.90
16974;DHT22;8603;46.944;7.412;2022-08-27T16:53:11;24.40;99.90
16974;DHT22;8603;46.944;7.412;2022-08-27T16:55:41;24.30;99.90
16974;DHT22;8603;46.944;7.412;2022-08-27T16:58:28;24.20;99.90
16974;DHT22;8603;46.944;7.412;2022-08-27T17:01:05;24.10;99.90
16974;DHT22;8603;46.944;7.412;2022-08-27T17:03:39;24.10;99.90
16974;DHT22;8603;46.944;7.412;2022-08-27T17:06:06;24.00;99.90
16974;DHT22;8603;46.944;7.412;2022-08-27T17:08:32;24.00;99.90
16974;DHT22;8603;46.944;7.412;2022-08-27T17:10:57;23.90;99.90
16974;DHT22;8603;46.944;7.412;2022-08-27T17:13:25;23.90;99.90
16974;DHT22;8603;46.944;7.412;2022-08-27T17:15:53;23.80;99.90
16974;DHT22;8603;46.944;7.412;2022-08-27T17:18:21;23.80;99.90
16974;DHT22;8603;46.944;7.412;2022-08-27T17:20:48;23.80;99.90
16974;DHT22;8603;46.944;7.412;2022-08-27T17:23:41;23.70;99.90
16974;DHT22;8603;46.944;7.412;2022-08-27T17:26:09;23.60;99.90
16974;DHT22;8603;46.944;7.412;2022-08-27T17:28:35;23.60;99.90
16974;DHT22;8603;46.944;7.412;2022-08-27T17:31:04;23.60;99.90
16974;DHT22;8603;46.944;7.412;2022-08-27T17:33:35;23.50;99.90
16974;DHT22;8603;46.944;7.412;2022-08-27T17:36:02;23.30;99.90
16974;DHT22;8603;46.944;7.412;2022-08-27T17:38:28;23.20;99.90
16974;DHT22;8603;46.944;7.412;2022-08-27T17:40:58;23.10;99.90